sensor_id;sensor_type;location;lat;lon;timestamp;P1;durP1;ratioP1;P2;durP2;ratioP2
15982;SDS011;14442;50.196;8.096;2024-01-10T00:01:32;2.70;;;2.50;;
15982;SDS011;14442;50.196;8.096;2024-01-10T00:03:59;2.00;;;1.90;;
15982;SDS011;14442;50.196;8.096;2024-01-10T00:06:26;2.83;;;2.40;;
15982;SDS011;14442;50.196;8.096;2024-01-10T00:08:54;2.77;;;2.40;;
15982;SDS011;14442;50.196;8.096;2024-01-10T00:11:21;2.70;;;2.47;;
15982;SDS011;14442;50.196;8.096;2024-01-10T00:13:48;2.20;;;2.00;;
15982;SDS011;14442;50.196;8.096;2024-01-10T00:16:14;2.57;;;2.30;;
15982;SDS011;14442;50.196;8.096;2024-01-10T00:18:41;2.97;;;2.23;;
15982;SDS011;14442;50.196;8.096;2024-01-10T00:21:08;2.07;;;1.90;;
15982;SDS011;14442;50.196;8.096;2024-01-10T00:23:35;1.97;;;1.87;;
15982;SDS011;14442;50.196;8.096;2024-01-10T00:26:04;2.47;;;2.27;;
15982;SDS011;14442;50.196;8.096;2024-01-10T00:28:30;2.40;;;2.20;;
15982;SDS011;14442;50.196;8.096;2024-01-10T00:30:57;2.10;;;2.00;;
15982;SDS011;14442;50.196;8.096;2024-01-10T00:33:24;2.43;;;1.80;;
15982;SDS011;14442;50.196;8.096;2024-01-10T00:35:51;2.00;;;1.83;;
15982;SDS011;14442;50.196;8.096;2024-01-10T00:38:17;1.90;;;1.80;;
15982;SDS011;14442;50.196;8.096;2024-01-10T00:40:44;2.07;;;1.97;;
15982;SDS011;14442;50.196;8.096;2024-01-10T00:43:12;1.90;;;1.80;;
15982;SDS011;14442;50.196;8.096;2024-01-10T00:45:39;2.03;;;1.90;;
15982;SDS011;14442;50.196;8.096;2024-01-10T00:48:06;2.23;;;2.03;;
15982;SDS011;14442;50.196;8.096;2024-01-10T00:50:33;2.30;;;2.20;;
15982;SDS011;14442;50.196;8.096;2024-01-10T00:53:00;1.90;;;1.80;;
15982;SDS011;14442;50.196;8.096;2024-01-10T00:55:26;1.80;;;1.70;;
15982;SDS011;14442;50.196;8.096;2024-01-10T00:57:53;2.30;;;2.00;;
15982;SDS011;14442;50.196;8.096;2024-01-10T01:00:21;2.00;;;1.90;;
15982;SDS011;14442;50.196;8.096;2024-01-10T01:02:48;2.33;;;1.70;;
15982;SDS011;14442;50.196;8.096;2024-01-10T01:05:15;1.83;;;1.73;;
15982;SDS011;14442;50.196;8.096;2024-01-10T01:07:41;1.80;;;1.70;;
15982;SDS011;14442;50.196;8.096;2024-01-10T01:10:08;3.77;;;1.80;;
15982;SDS011;14442;50.196;8.096;2024-01-10T01:12:35;1.93;;;1.83;;
15982;SDS011;14442;50.196;8.096;2024-01-10T01:15:02;1.83;;;1.73;;
15982;SDS011;14442;50.196;8.096;2024-01-10T01:17:31;1.63;;;1.53;;
15982;SDS011;14442;50.196;8.096;2024-01-10T01:19:59;1.83;;;1.70;;
15982;SDS011;14442;50.196;8.096;2024-01-10T01:22:26;1.87;;;1.77;;
15982;SDS011;14442;50.196;8.096;2024-01-10T01:24:52;1.90;;;1.80;;
15982;SDS011;14442;50.196;8.096;2024-01-10T01:27:19;1.93;;;1.83;;
15982;SDS011;14442;50.196;8.096;2024-01-10T01:29:46;1.60;;;1.50;;
15982;SDS011;14442;50.196;8.096;2024-01-10T01:32:12;1.87;;;1.50;;
15982;SDS011;14442;50.196;8.096;2024-01-10T01:34:40;1.90;;;1.70;;
15982;SDS011;14442;50.196;8.096;2024-01-10T01:37:07;1.80;;;1.70;;
15982;SDS011;14442;50.196;8.096;2024-01-10T01:39:34;1.60;;;1.50;;
15982;SDS011;14442;50.196;8.096;2024-01-10T01:42:01;1.77;;;1.67;;
15982;SDS011;14442;50.196;8.096;2024-01-10T01:44:28;2.27;;;1.60;;
15982;SDS011;14442;50.196;8.096;2024-01-10T01:46:56;2.60;;;1.70;;
15982;SDS011;14442;50.196;8.096;2024-01-10T01:49:23;2.43;;;1.70;;
15982;SDS011;14442;50.196;8.096;2024-01-10T01:51:52;1.80;;;1.70;;
15982;SDS011;14442;50.196;8.096;2024-01-10T01:54:19;2.07;;;1.90;;
15982;SDS011;14442;50.196;8.096;2024-01-10T01:56:45;1.73;;;1.63;;
15982;SDS011;14442;50.196;8.096;2024-01-10T01:59:13;2.07;;;1.97;;
15982;SDS011;14442;50.196;8.096;2024-01-10T02:01:40;1.47;;;1.40;;
15982;SDS011;14442;50.196;8.096;2024-01-10T02:04:07;1.80;;;1.70;;
15982;SDS011;14442;50.196;8.096;2024-01-10T02:06:33;1.73;;;1.63;;
15982;SDS011;14442;50.196;8.096;2024-01-10T02:09:02;1.57;;;1.47;;
15982;SDS011;14442;50.196;8.096;2024-01-10T02:11:29;1.50;;;1.40;;
15982;SDS011;14442;50.196;8.096;2024-01-10T02:13:57;1.53;;;1.43;;
15982;SDS011;14442;50.196;8.096;2024-01-10T02:16:24;2.00;;;1.80;;
15982;SDS011;14442;50.196;8.096;2024-01-10T02:18:51;1.80;;;1.70;;
15982;SDS011;14442;50.196;8.096;2024-01-10T02:21:20;1.90;;;1.80;;
15982;SDS011;14442;50.196;8.096;2024-01-10T02:23:46;1.70;;;1.60;;
15982;SDS011;14442;50.196;8.096;2024-01-10T02:26:15;1.47;;;1.37;;
15982;SDS011;14442;50.196;8.096;2024-01-10T02:28:42;1.63;;;1.53;;
15982;SDS011;14442;50.196;8.096;2024-01-10T02:31:09;1.70;;;1.60;;
15982;SDS011;14442;50.196;8.096;2024-01-10T02:33:36;1.83;;;1.73;;
15982;SDS011;14442;50.196;8.096;2024-01-10T02:36:03;2.03;;;1.93;;
15982;SDS011;14442;50.196;8.096;2024-01-10T02:38:30;1.93;;;1.83;;
15982;SDS011;14442;50.196;8.096;2024-01-10T02:40:57;2.20;;;2.00;;
15982;SDS011;14442;50.196;8.096;2024-01-10T02:43:27;1.70;;;1.60;;
15982;SDS011;14442;50.196;8.096;2024-01-10T02:45:53;1.70;;;1.60;;
15982;SDS011;14442;50.196;8.096;2024-01-10T02:48:20;1.60;;;1.50;;
15982;SDS011;14442;50.196;8.096;2024-01-10T02:50:47;1.70;;;1.60;;
15982;SDS011;14442;50.196;8.096;2024-01-10T02:53:13;2.07;;;1.97;;
15982;SDS011;14442;50.196;8.096;2024-01-10T02:55:40;1.80;;;1.70;;
15982;SDS011;14442;50.196;8.096;2024-01-10T02:58:07;2.20;;;2.00;;
15982;SDS011;14442;50.196;8.096;2024-01-10T03:00:35;1.80;;;1.50;;
15982;SDS011;14442;50.196;8.096;2024-01-10T03:03:02;1.60;;;1.50;;
15982;SDS011;14442;50.196;8.096;2024-01-10T03:05:29;1.83;;;1.73;;
15982;SDS011;14442;50.196;8.096;2024-01-10T03:07:56;1.73;;;1.63;;
15982;SDS011;14442;50.196;8.096;2024-01-10T03:10:23;1.80;;;1.70;;
15982;SDS011;14442;50.196;8.096;2024-01-10T03:12:49;2.80;;;2.07;;
15982;SDS011;14442;50.196;8.096;2024-01-10T03:15:16;1.80;;;1.70;;
15982;SDS011;14442;50.196;8.096;2024-01-10T03:17:44;1.90;;;1.80;;
15982;SDS011;14442;50.196;8.096;2024-01-10T03:20:11;1.97;;;1.77;;
15982;SDS011;14442;50.196;8.096;2024-01-10T03:22:38;1.83;;;1.73;;
15982;SDS011;14442;50.196;8.096;2024-01-10T03:25:04;2.00;;;1.90;;
15982;SDS011;14442;50.196;8.096;2024-01-10T03:27:31;2.07;;;1.87;;
15982;SDS011;14442;50.196;8.096;2024-01-10T03:29:58;2.40;;;1.83;;
15982;SDS011;14442;50.196;8.096;2024-01-10T03:32:25;1.87;;;1.77;;
15982;SDS011;14442;50.196;8.096;2024-01-10T03:34:53;1.80;;;1.70;;
15982;SDS011;14442;50.196;8.096;2024-01-10T03:37:20;1.70;;;1.60;;
15982;SDS011;14442;50.196;8.096;2024-01-10T03:39:47;1.47;;;1.37;;
15982;SDS011;14442;50.196;8.096;2024-01-10T03:42:13;1.83;;;1.73;;
15982;SDS011;14442;50.196;8.096;2024-01-10T03:44:41;1.83;;;1.73;;
15982;SDS011;14442;50.196;8.096;2024-01-10T03:47:07;1.83;;;1.73;;
15982;SDS011;14442;50.196;8.096;2024-01-10T03:49:34;1.77;;;1.67;;
15982;SDS011;14442;50.196;8.096;2024-01-10T03:52:02;1.93;;;1.77;;
15982;SDS011;14442;50.196;8.096;2024-01-10T03:54:30;1.80;;;1.70;;
15982;SDS011;14442;50.196;8.096;2024-01-10T03:56:57;2.10;;;2.00;;
15982;SDS011;14442;50.196;8.096;2024-01-10T03:59:23;1.73;;;1.63;;
15982;SDS011;14442;50.196;8.096;2024-01-10T04:01:50;2.00;;;1.90;;
15982;SDS011;14442;50.196;8.096;2024-01-10T04:04:17;2.00;;;1.80;;
15982;SDS011;14442;50.196;8.096;2024-01-10T04:06:43;1.97;;;1.87;;
15982;SDS011;14442;50.196;8.096;2024-01-10T04:09:12;2.03;;;1.93;;
15982;SDS011;14442;50.196;8.096;2024-01-10T04:11:39;1.77;;;1.67;;
15982;SDS011;14442;50.196;8.096;2024-01-10T04:14:06;1.80;;;1.70;;
15982;SDS011;14442;50.196;8.096;2024-01-10T04:16:32;2.13;;;1.90;;
15982;SDS011;14442;50.196;8.096;2024-01-10T04:18:59;2.00;;;1.90;;
15982;SDS011;14442;50.196;8.096;2024-01-10T04:21:26;1.87;;;1.77;;
15982;SDS011;14442;50.196;8.096;2024-01-10T04:23:52;2.27;;;2.07;;
15982;SDS011;14442;50.196;8.096;2024-01-10T04:26:20;2.10;;;1.90;;
15982;SDS011;14442;50.196;8.096;2024-01-10T04:28:46;1.90;;;1.80;;
15982;SDS011;14442;50.196;8.096;2024-01-10T04:31:14;1.93;;;1.83;;
15982;SDS011;14442;50.196;8.096;2024-01-10T04:33:40;1.80;;;1.70;;
15982;SDS011;14442;50.196;8.096;2024-01-10T04:36:07;1.97;;;1.87;;
15982;SDS011;14442;50.196;8.096;2024-01-10T04:38:34;2.27;;;2.07;;
15982;SDS011;14442;50.196;8.096;2024-01-10T04:41:01;1.97;;;1.87;;
15982;SDS011;14442;50.196;8.096;2024-01-10T04:43:29;2.30;;;2.20;;
15982;SDS011;14442;50.196;8.096;2024-01-10T04:45:55;2.17;;;1.97;;
15982;SDS011;14442;50.196;8.096;2024-01-10T04:48:22;2.57;;;2.37;;
15982;SDS011;14442;50.196;8.096;2024-01-10T04:50:49;1.97;;;1.87;;
15982;SDS011;14442;50.196;8.096;2024-01-10T04:53:15;2.63;;;2.43;;
15982;SDS011;14442;50.196;8.096;2024-01-10T04:55:42;2.37;;;2.13;;
15982;SDS011;14442;50.196;8.096;2024-01-10T04:58:09;2.50;;;2.30;;
15982;SDS011;14442;50.196;8.096;2024-01-10T05:00:37;2.53;;;2.17;;
15982;SDS011;14442;50.196;8.096;2024-01-10T05:03:04;2.33;;;2.17;;
15982;SDS011;14442;50.196;8.096;2024-01-10T05:05:31;2.23;;;2.13;;
15982;SDS011;14442;50.196;8.096;2024-01-10T05:07:58;2.23;;;2.03;;
15982;SDS011;14442;50.196;8.096;2024-01-10T05:10:26;2.33;;;2.17;;
15982;SDS011;14442;50.196;8.096;2024-01-10T05:12:52;2.23;;;2.13;;
15982;SDS011;14442;50.196;8.096;2024-01-10T05:15:19;2.30;;;2.10;;
15982;SDS011;14442;50.196;8.096;2024-01-10T05:17:47;2.50;;;2.30;;
15982;SDS011;14442;50.196;8.096;2024-01-10T05:20:14;2.07;;;1.97;;
15982;SDS011;14442;50.196;8.096;2024-01-10T05:22:42;2.50;;;2.30;;
15982;SDS011;14442;50.196;8.096;2024-01-10T05:25:09;2.80;;;2.60;;
15982;SDS011;14442;50.196;8.096;2024-01-10T05:27:36;2.10;;;2.00;;
15982;SDS011;14442;50.196;8.096;2024-01-10T05:30:02;2.80;;;2.60;;
15982;SDS011;14442;50.196;8.096;2024-01-10T05:32:30;2.30;;;2.10;;
15982;SDS011;14442;50.196;8.096;2024-01-10T05:34:58;2.30;;;2.10;;
15982;SDS011;14442;50.196;8.096;2024-01-10T05:37:24;2.70;;;2.50;;
15982;SDS011;14442;50.196;8.096;2024-01-10T05:39:51;2.60;;;2.40;;
15982;SDS011;14442;50.196;8.096;2024-01-10T05:42:18;2.40;;;2.30;;
15982;SDS011;14442;50.196;8.096;2024-01-10T05:44:45;2.07;;;1.90;;
15982;SDS011;14442;50.196;8.096;2024-01-10T05:47:11;2.47;;;2.27;;
15982;SDS011;14442;50.196;8.096;2024-01-10T05:49:38;2.07;;;1.97;;
15982;SDS011;14442;50.196;8.096;2024-01-10T05:52:06;2.80;;;2.60;;
15982;SDS011;14442;50.196;8.096;2024-01-10T05:54:33;2.20;;;2.10;;
15982;SDS011;14442;50.196;8.096;2024-01-10T05:57:00;2.60;;;2.40;;
15982;SDS011;14442;50.196;8.096;2024-01-10T05:59:27;2.60;;;2.43;;
15982;SDS011;14442;50.196;8.096;2024-01-10T06:01:55;2.83;;;2.57;;
15982;SDS011;14442;50.196;8.096;2024-01-10T06:04:22;2.70;;;2.50;;
15982;SDS011;14442;50.196;8.096;2024-01-10T06:06:49;3.13;;;2.83;;
15982;SDS011;14442;50.196;8.096;2024-01-10T06:09:17;2.60;;;2.40;;
15982;SDS011;14442;50.196;8.096;2024-01-10T06:11:47;3.00;;;2.73;;
15982;SDS011;14442;50.196;8.096;2024-01-10T06:14:13;2.70;;;2.47;;
15982;SDS011;14442;50.196;8.096;2024-01-10T06:16:40;2.73;;;2.53;;
15982;SDS011;14442;50.196;8.096;2024-01-10T06:19:07;2.60;;;2.40;;
15982;SDS011;14442;50.196;8.096;2024-01-10T06:21:35;2.63;;;2.43;;
15982;SDS011;14442;50.196;8.096;2024-01-10T06:24:02;2.97;;;2.77;;
15982;SDS011;14442;50.196;8.096;2024-01-10T06:26:30;3.23;;;2.93;;
15982;SDS011;14442;50.196;8.096;2024-01-10T06:28:57;3.30;;;3.00;;
15982;SDS011;14442;50.196;8.096;2024-01-10T06:31:24;2.87;;;2.67;;
15982;SDS011;14442;50.196;8.096;2024-01-10T06:33:51;3.30;;;3.00;;
15982;SDS011;14442;50.196;8.096;2024-01-10T06:36:17;3.20;;;2.83;;
15982;SDS011;14442;50.196;8.096;2024-01-10T06:38:44;3.33;;;3.00;;
15982;SDS011;14442;50.196;8.096;2024-01-10T06:41:11;3.70;;;3.40;;
15982;SDS011;14442;50.196;8.096;2024-01-10T06:43:40;3.30;;;3.00;;
15982;SDS011;14442;50.196;8.096;2024-01-10T06:46:07;3.03;;;2.83;;
15982;SDS011;14442;50.196;8.096;2024-01-10T06:48:35;3.40;;;3.10;;
15982;SDS011;14442;50.196;8.096;2024-01-10T06:51:02;3.40;;;3.10;;
15982;SDS011;14442;50.196;8.096;2024-01-10T06:53:28;4.17;;;3.77;;
15982;SDS011;14442;50.196;8.096;2024-01-10T06:55:55;7.53;;;3.27;;
15982;SDS011;14442;50.196;8.096;2024-01-10T06:58:22;5.17;;;4.00;;
15982;SDS011;14442;50.196;8.096;2024-01-10T07:00:50;5.40;;;4.50;;
15982;SDS011;14442;50.196;8.096;2024-01-10T07:03:17;5.60;;;3.60;;
15982;SDS011;14442;50.196;8.096;2024-01-10T07:05:44;4.47;;;4.07;;
15982;SDS011;14442;50.196;8.096;2024-01-10T07:08:10;4.30;;;3.90;;
15982;SDS011;14442;50.196;8.096;2024-01-10T07:10:37;3.80;;;3.40;;
15982;SDS011;14442;50.196;8.096;2024-01-10T07:13:04;3.07;;;2.87;;
15982;SDS011;14442;50.196;8.096;2024-01-10T07:15:31;5.87;;;3.40;;
15982;SDS011;14442;50.196;8.096;2024-01-10T07:18:00;4.70;;;3.53;;
15982;SDS011;14442;50.196;8.096;2024-01-10T07:20:31;3.60;;;3.30;;
15982;SDS011;14442;50.196;8.096;2024-01-10T07:22:59;4.63;;;3.70;;
15982;SDS011;14442;50.196;8.096;2024-01-10T07:25:25;4.77;;;3.07;;
15982;SDS011;14442;50.196;8.096;2024-01-10T07:27:52;3.90;;;3.50;;
15982;SDS011;14442;50.196;8.096;2024-01-10T07:30:19;4.47;;;3.50;;
15982;SDS011;14442;50.196;8.096;2024-01-10T07:32:46;3.57;;;3.27;;
15982;SDS011;14442;50.196;8.096;2024-01-10T07:35:14;3.50;;;3.20;;
15982;SDS011;14442;50.196;8.096;2024-01-10T07:37:41;3.70;;;3.40;;
15982;SDS011;14442;50.196;8.096;2024-01-10T07:40:08;4.43;;;3.47;;
15982;SDS011;14442;50.196;8.096;2024-01-10T07:42:36;4.13;;;3.63;;
15982;SDS011;14442;50.196;8.096;2024-01-10T07:45:05;3.80;;;3.50;;
15982;SDS011;14442;50.196;8.096;2024-01-10T07:47:33;3.17;;;2.97;;
15982;SDS011;14442;50.196;8.096;2024-01-10T07:50:02;3.23;;;2.93;;
15982;SDS011;14442;50.196;8.096;2024-01-10T07:52:31;4.43;;;3.50;;
15982;SDS011;14442;50.196;8.096;2024-01-10T07:54:58;3.53;;;3.20;;
15982;SDS011;14442;50.196;8.096;2024-01-10T07:57:25;3.47;;;3.17;;
15982;SDS011;14442;50.196;8.096;2024-01-10T07:59:52;3.47;;;3.17;;
15982;SDS011;14442;50.196;8.096;2024-01-10T08:02:18;3.33;;;3.03;;
15982;SDS011;14442;50.196;8.096;2024-01-10T08:04:45;3.47;;;3.17;;
15982;SDS011;14442;50.196;8.096;2024-01-10T08:07:12;3.07;;;2.77;;
15982;SDS011;14442;50.196;8.096;2024-01-10T08:09:40;3.03;;;2.83;;
15982;SDS011;14442;50.196;8.096;2024-01-10T08:12:07;4.10;;;3.70;;
15982;SDS011;14442;50.196;8.096;2024-01-10T08:14:34;4.70;;;3.53;;
15982;SDS011;14442;50.196;8.096;2024-01-10T08:17:02;3.70;;;3.40;;
15982;SDS011;14442;50.196;8.096;2024-01-10T08:19:29;4.53;;;3.30;;
15982;SDS011;14442;50.196;8.096;2024-01-10T08:21:56;3.80;;;3.47;;
15982;SDS011;14442;50.196;8.096;2024-01-10T08:24:23;3.90;;;3.60;;
15982;SDS011;14442;50.196;8.096;2024-01-10T08:26:52;4.10;;;3.57;;
15982;SDS011;14442;50.196;8.096;2024-01-10T08:29:19;3.50;;;3.20;;
15982;SDS011;14442;50.196;8.096;2024-01-10T08:31:46;4.77;;;3.63;;
15982;SDS011;14442;50.196;8.096;2024-01-10T08:34:13;4.00;;;3.70;;
15982;SDS011;14442;50.196;8.096;2024-01-10T08:36:40;3.73;;;3.43;;
15982;SDS011;14442;50.196;8.096;2024-01-10T08:39:07;3.83;;;3.43;;
15982;SDS011;14442;50.196;8.096;2024-01-10T08:41:36;3.87;;;3.40;;
15982;SDS011;14442;50.196;8.096;2024-01-10T08:44:09;5.30;;;3.80;;
15982;SDS011;14442;50.196;8.096;2024-01-10T08:46:36;4.80;;;4.07;;
15982;SDS011;14442;50.196;8.096;2024-01-10T08:49:03;6.03;;;3.47;;
15982;SDS011;14442;50.196;8.096;2024-01-10T08:51:29;4.03;;;3.73;;
15982;SDS011;14442;50.196;8.096;2024-01-10T08:53:56;5.57;;;4.07;;
15982;SDS011;14442;50.196;8.096;2024-01-10T08:56:23;4.40;;;4.00;;
15982;SDS011;14442;50.196;8.096;2024-01-10T08:58:51;5.40;;;3.60;;
15982;SDS011;14442;50.196;8.096;2024-01-10T09:01:19;4.37;;;3.97;;
15982;SDS011;14442;50.196;8.096;2024-01-10T09:03:46;4.23;;;3.83;;
15982;SDS011;14442;50.196;8.096;2024-01-10T09:06:13;4.83;;;3.90;;
15982;SDS011;14442;50.196;8.096;2024-01-10T09:08:42;4.30;;;3.90;;
15982;SDS011;14442;50.196;8.096;2024-01-10T09:11:09;6.13;;;4.20;;
15982;SDS011;14442;50.196;8.096;2024-01-10T09:13:35;4.63;;;4.20;;
15982;SDS011;14442;50.196;8.096;2024-01-10T09:16:05;5.40;;;3.90;;
15982;SDS011;14442;50.196;8.096;2024-01-10T09:18:33;5.03;;;4.47;;
15982;SDS011;14442;50.196;8.096;2024-01-10T09:21:00;4.50;;;4.10;;
15982;SDS011;14442;50.196;8.096;2024-01-10T09:23:27;4.73;;;4.13;;
15982;SDS011;14442;50.196;8.096;2024-01-10T09:25:53;5.10;;;4.67;;
15982;SDS011;14442;50.196;8.096;2024-01-10T09:28:20;4.67;;;4.27;;
15982;SDS011;14442;50.196;8.096;2024-01-10T09:30:47;4.70;;;4.30;;
15982;SDS011;14442;50.196;8.096;2024-01-10T09:33:14;5.27;;;4.70;;
15982;SDS011;14442;50.196;8.096;2024-01-10T09:35:42;4.50;;;4.10;;
15982;SDS011;14442;50.196;8.096;2024-01-10T09:38:08;4.43;;;4.03;;
15982;SDS011;14442;50.196;8.096;2024-01-10T09:40:35;5.37;;;4.20;;
15982;SDS011;14442;50.196;8.096;2024-01-10T09:43:02;4.77;;;4.27;;
15982;SDS011;14442;50.196;8.096;2024-01-10T09:45:32;5.33;;;4.83;;
15982;SDS011;14442;50.196;8.096;2024-01-10T09:48:01;5.10;;;4.20;;
15982;SDS011;14442;50.196;8.096;2024-01-10T09:50:28;4.50;;;4.10;;
15982;SDS011;14442;50.196;8.096;2024-01-10T09:52:58;5.00;;;4.50;;
15982;SDS011;14442;50.196;8.096;2024-01-10T09:55:33;5.20;;;4.67;;
15982;SDS011;14442;50.196;8.096;2024-01-10T09:58:01;4.70;;;4.30;;
15982;SDS011;14442;50.196;8.096;2024-01-10T10:00:29;6.20;;;4.60;;
15982;SDS011;14442;50.196;8.096;2024-01-10T10:02:56;4.67;;;4.27;;
15982;SDS011;14442;50.196;8.096;2024-01-10T10:05:25;4.53;;;4.17;;
15982;SDS011;14442;50.196;8.096;2024-01-10T10:07:52;4.80;;;4.40;;
15982;SDS011;14442;50.196;8.096;2024-01-10T10:10:20;4.37;;;3.97;;
15982;SDS011;14442;50.196;8.096;2024-01-10T10:12:48;4.30;;;3.90;;
15982;SDS011;14442;50.196;8.096;2024-01-10T10:15:16;5.67;;;5.17;;
15982;SDS011;14442;50.196;8.096;2024-01-10T10:17:44;5.40;;;4.90;;
15982;SDS011;14442;50.196;8.096;2024-01-10T10:20:13;6.47;;;5.07;;
15982;SDS011;14442;50.196;8.096;2024-01-10T10:22:43;8.60;;;5.43;;
15982;SDS011;14442;50.196;8.096;2024-01-10T10:25:26;8.80;;;4.67;;
15982;SDS011;14442;50.196;8.096;2024-01-10T10:27:55;8.43;;;5.03;;
15982;SDS011;14442;50.196;8.096;2024-01-10T10:30:22;14.70;;;6.13;;
15982;SDS011;14442;50.196;8.096;2024-01-10T10:32:49;10.27;;;4.90;;
15982;SDS011;14442;50.196;8.096;2024-01-10T10:35:17;10.90;;;5.90;;
15982;SDS011;14442;50.196;8.096;2024-01-10T10:37:45;16.27;;;5.33;;
15982;SDS011;14442;50.196;8.096;2024-01-10T10:40:11;8.13;;;5.17;;
15982;SDS011;14442;50.196;8.096;2024-01-10T10:42:40;6.77;;;4.63;;
15982;SDS011;14442;50.196;8.096;2024-01-10T10:45:12;16.77;;;5.57;;
15982;SDS011;14442;50.196;8.096;2024-01-10T10:47:41;8.87;;;4.97;;
15982;SDS011;14442;50.196;8.096;2024-01-10T10:50:10;7.63;;;4.83;;
15982;SDS011;14442;50.196;8.096;2024-01-10T10:52:40;12.70;;;5.17;;
15982;SDS011;14442;50.196;8.096;2024-01-10T10:55:12;7.20;;;4.90;;
15982;SDS011;14442;50.196;8.096;2024-01-10T10:57:42;7.67;;;4.80;;
15982;SDS011;14442;50.196;8.096;2024-01-10T11:00:11;6.63;;;5.40;;
15982;SDS011;14442;50.196;8.096;2024-01-10T11:02:40;5.23;;;4.43;;
15982;SDS011;14442;50.196;8.096;2024-01-10T11:05:07;10.03;;;5.23;;
15982;SDS011;14442;50.196;8.096;2024-01-10T11:07:35;5.93;;;4.50;;
15982;SDS011;14442;50.196;8.096;2024-01-10T11:10:02;7.00;;;4.57;;
15982;SDS011;14442;50.196;8.096;2024-01-10T11:12:34;8.23;;;5.07;;
15982;SDS011;14442;50.196;8.096;2024-01-10T11:15:20;5.60;;;4.50;;
15982;SDS011;14442;50.196;8.096;2024-01-10T11:18:03;5.67;;;4.63;;
15982;SDS011;14442;50.196;8.096;2024-01-10T11:21:02;7.30;;;4.80;;
15982;SDS011;14442;50.196;8.096;2024-01-10T11:23:42;6.10;;;4.77;;
15982;SDS011;14442;50.196;8.096;2024-01-10T11:26:14;5.37;;;4.30;;
15982;SDS011;14442;50.196;8.096;2024-01-10T11:28:43;5.27;;;4.47;;
15982;SDS011;14442;50.196;8.096;2024-01-10T11:31:10;5.03;;;4.53;;
15982;SDS011;14442;50.196;8.096;2024-01-10T11:33:40;5.33;;;4.53;;
15982;SDS011;14442;50.196;8.096;2024-01-10T11:36:09;5.57;;;4.47;;
15982;SDS011;14442;50.196;8.096;2024-01-10T11:38:41;5.83;;;5.17;;
15982;SDS011;14442;50.196;8.096;2024-01-10T11:41:12;5.97;;;5.33;;
15982;SDS011;14442;50.196;8.096;2024-01-10T11:43:47;5.67;;;4.83;;
15982;SDS011;14442;50.196;8.096;2024-01-10T11:46:53;4.83;;;4.13;;
15982;SDS011;14442;50.196;8.096;2024-01-10T11:49:21;4.97;;;3.93;;
15982;SDS011;14442;50.196;8.096;2024-01-10T11:51:49;5.47;;;4.40;;
15982;SDS011;14442;50.196;8.096;2024-01-10T11:54:34;4.83;;;4.43;;
15982;SDS011;14442;50.196;8.096;2024-01-10T11:57:02;5.70;;;4.53;;
15982;SDS011;14442;50.196;8.096;2024-01-10T11:59:34;4.70;;;4.30;;
15982;SDS011;14442;50.196;8.096;2024-01-10T12:02:01;5.87;;;4.63;;
15982;SDS011;14442;50.196;8.096;2024-01-10T12:04:29;5.03;;;4.50;;
15982;SDS011;14442;50.196;8.096;2024-01-10T12:06:57;6.00;;;4.50;;
15982;SDS011;14442;50.196;8.096;2024-01-10T12:09:24;5.30;;;4.73;;
15982;SDS011;14442;50.196;8.096;2024-01-10T12:11:51;5.40;;;4.50;;
15982;SDS011;14442;50.196;8.096;2024-01-10T12:14:18;6.07;;;5.13;;
15982;SDS011;14442;50.196;8.096;2024-01-10T12:16:47;9.20;;;4.57;;
15982;SDS011;14442;50.196;8.096;2024-01-10T12:19:13;6.40;;;4.73;;
15982;SDS011;14442;50.196;8.096;2024-01-10T12:21:40;5.17;;;4.53;;
15982;SDS011;14442;50.196;8.096;2024-01-10T12:24:07;4.97;;;4.57;;
15982;SDS011;14442;50.196;8.096;2024-01-10T12:26:34;5.53;;;4.50;;
15982;SDS011;14442;50.196;8.096;2024-01-10T12:29:01;5.43;;;4.77;;
15982;SDS011;14442;50.196;8.096;2024-01-10T12:31:29;5.83;;;4.87;;
15982;SDS011;14442;50.196;8.096;2024-01-10T12:33:57;7.23;;;4.47;;
15982;SDS011;14442;50.196;8.096;2024-01-10T12:36:25;5.23;;;4.73;;
15982;SDS011;14442;50.196;8.096;2024-01-10T12:38:53;5.87;;;4.63;;
15982;SDS011;14442;50.196;8.096;2024-01-10T12:41:20;6.80;;;4.97;;
15982;SDS011;14442;50.196;8.096;2024-01-10T12:43:48;4.90;;;4.40;;
15982;SDS011;14442;50.196;8.096;2024-01-10T12:46:16;5.33;;;4.83;;
15982;SDS011;14442;50.196;8.096;2024-01-10T12:48:43;5.83;;;5.23;;
15982;SDS011;14442;50.196;8.096;2024-01-10T12:51:12;5.10;;;4.43;;
15982;SDS011;14442;50.196;8.096;2024-01-10T12:53:39;6.10;;;4.93;;
15982;SDS011;14442;50.196;8.096;2024-01-10T12:56:07;5.00;;;4.50;;
15982;SDS011;14442;50.196;8.096;2024-01-10T12:58:38;6.10;;;4.57;;
15982;SDS011;14442;50.196;8.096;2024-01-10T13:01:07;5.40;;;4.90;;
15982;SDS011;14442;50.196;8.096;2024-01-10T13:03:34;5.30;;;4.80;;
15982;SDS011;14442;50.196;8.096;2024-01-10T13:06:01;5.53;;;4.67;;
15982;SDS011;14442;50.196;8.096;2024-01-10T13:08:30;5.10;;;4.60;;
15982;SDS011;14442;50.196;8.096;2024-01-10T13:10:57;4.60;;;4.20;;
15982;SDS011;14442;50.196;8.096;2024-01-10T13:13:24;4.60;;;4.20;;
15982;SDS011;14442;50.196;8.096;2024-01-10T13:15:51;5.03;;;4.30;;
15982;SDS011;14442;50.196;8.096;2024-01-10T13:18:19;4.80;;;4.30;;
15982;SDS011;14442;50.196;8.096;2024-01-10T13:20:45;4.67;;;4.27;;
15982;SDS011;14442;50.196;8.096;2024-01-10T13:23:12;5.40;;;4.90;;
15982;SDS011;14442;50.196;8.096;2024-01-10T13:25:42;5.10;;;4.70;;
15982;SDS011;14442;50.196;8.096;2024-01-10T13:28:08;5.27;;;4.77;;
15982;SDS011;14442;50.196;8.096;2024-01-10T13:30:37;4.90;;;4.40;;
15982;SDS011;14442;50.196;8.096;2024-01-10T13:33:06;5.07;;;4.57;;
15982;SDS011;14442;50.196;8.096;2024-01-10T13:35:34;5.30;;;4.80;;
15982;SDS011;14442;50.196;8.096;2024-01-10T13:38:01;6.03;;;4.57;;
15982;SDS011;14442;50.196;8.096;2024-01-10T13:40:28;5.20;;;4.67;;
15982;SDS011;14442;50.196;8.096;2024-01-10T13:42:56;6.57;;;4.83;;
15982;SDS011;14442;50.196;8.096;2024-01-10T13:45:22;5.00;;;4.50;;
15982;SDS011;14442;50.196;8.096;2024-01-10T13:47:49;9.87;;;4.77;;
15982;SDS011;14442;50.196;8.096;2024-01-10T13:50:16;5.50;;;4.43;;
15982;SDS011;14442;50.196;8.096;2024-01-10T13:52:43;7.43;;;4.70;;
15982;SDS011;14442;50.196;8.096;2024-01-10T13:55:09;7.27;;;5.13;;
15982;SDS011;14442;50.196;8.096;2024-01-10T13:57:36;5.17;;;4.63;;
15982;SDS011;14442;50.196;8.096;2024-01-10T14:00:05;6.53;;;4.77;;
15982;SDS011;14442;50.196;8.096;2024-01-10T14:02:33;5.67;;;5.07;;
15982;SDS011;14442;50.196;8.096;2024-01-10T14:05:00;5.47;;;4.80;;
15982;SDS011;14442;50.196;8.096;2024-01-10T14:07:30;5.67;;;4.77;;
15982;SDS011;14442;50.196;8.096;2024-01-10T14:09:57;6.10;;;4.60;;
15982;SDS011;14442;50.196;8.096;2024-01-10T14:12:24;5.07;;;4.57;;
15982;SDS011;14442;50.196;8.096;2024-01-10T14:14:51;8.13;;;4.70;;
15982;SDS011;14442;50.196;8.096;2024-01-10T14:17:19;5.27;;;4.67;;
15982;SDS011;14442;50.196;8.096;2024-01-10T14:19:47;4.83;;;4.43;;
15982;SDS011;14442;50.196;8.096;2024-01-10T14:22:15;5.63;;;4.07;;
15982;SDS011;14442;50.196;8.096;2024-01-10T14:24:42;5.30;;;4.80;;
15982;SDS011;14442;50.196;8.096;2024-01-10T14:27:09;7.70;;;4.90;;
15982;SDS011;14442;50.196;8.096;2024-01-10T14:29:35;4.80;;;4.37;;
15982;SDS011;14442;50.196;8.096;2024-01-10T14:32:02;6.40;;;5.07;;
15982;SDS011;14442;50.196;8.096;2024-01-10T14:34:31;6.93;;;5.13;;
15982;SDS011;14442;50.196;8.096;2024-01-10T14:36:58;10.83;;;5.30;;
15982;SDS011;14442;50.196;8.096;2024-01-10T14:39:24;9.93;;;5.00;;
15982;SDS011;14442;50.196;8.096;2024-01-10T14:41:51;6.23;;;4.37;;
15982;SDS011;14442;50.196;8.096;2024-01-10T14:44:18;9.93;;;5.10;;
15982;SDS011;14442;50.196;8.096;2024-01-10T14:46:44;7.53;;;5.03;;
15982;SDS011;14442;50.196;8.096;2024-01-10T14:49:11;9.43;;;5.30;;
15982;SDS011;14442;50.196;8.096;2024-01-10T14:51:39;9.17;;;4.90;;